Etusivu
METAR-TAF:

METAR-TAF

Lentoasemat :

Vamdrup

Kolding, Tanska

Leveyspiiri: 55-26N, Pituuspiiri: 009-20E, korkeus merenpinnasta: 44 m

Tämänhetkinen sää

Tämä raportti tehtiin 37 minuuttia sitten, kello 22.50 UTC
Tuuli 15 kn lännestä
Lämpötila 6°C
Kosteus 87%
Ilmanpaine 1010 hPa

METAR: EKVD 012250Z AUTO 26015KT //// ///////// 06/04 Q1010

Aika: 01:27 (23:27 UTC)

Sääennuste

Tämä raportti tehtiin 11 tuntia ja 30 minuuttia sitten, kello 11.57 UTC
Ennuste voimassa 01. päivästä klo 12 UTC - 01. päivään klo 16 UTC
Tuuli 15 kn lännestä
Näkyvyys 10 km tai enemmän
Hajonneita pilviä 3000 ft:n korkeudessa
Ajoittain
01. päivästä klo 12 UTC - 01. päivään klo 16 UTC
Hajanaisia pilviä 2000 ft:n korkeudessa, Kasvava cumulus-pilvi.

TAF: EKVD 011157Z 0112/0116 28015KT 9999 BKN030 TEMPO 0112/0116 SCT020TCU

Säähavainnot ja -ennusteet yli 4000 lentoasemalta (METAR- ja TAF-raportit).

Käytössä olevat sääasemat on merkitty karttaan keltaisilla ja punaisilla pisteillä.

Aseta hiiri pisteen päälle nähdäksesi sääaseman nimen.

Klikkaa sitten nähdäksesi säähavainnot ja -ennusteet.

Kartan vaihtaminen: klikkaa mustalla rastilla varustettuja vihreitä pisteitä, niin voit zoomata sisään; viivalla varustettua vihreää pistettä, niin voit zoomata ulos tai vihreitä nuolia, niin pääset viereisille kartoille.


METAR-TAF: